sensor_id;sensor_type;location;lat;lon;timestamp;P1;durP1;ratioP1;P2;durP2;ratioP2
20454;SDS011;10386;54.314;10.022;2023-08-31T00:00:00;28.43;;;17.27;;
20454;SDS011;10386;54.314;10.022;2023-08-31T00:02:28;29.87;;;17.33;;
20454;SDS011;10386;54.314;10.022;2023-08-31T00:04:57;29.93;;;17.23;;
20454;SDS011;10386;54.314;10.022;2023-08-31T00:07:26;32.70;;;18.50;;
20454;SDS011;10386;54.314;10.022;2023-08-31T00:09:55;26.60;;;16.30;;
20454;SDS011;10386;54.314;10.022;2023-08-31T00:12:24;26.60;;;16.67;;
20454;SDS011;10386;54.314;10.022;2023-08-31T00:14:53;26.80;;;16.10;;
20454;SDS011;10386;54.314;10.022;2023-08-31T00:17:21;30.17;;;16.63;;
20454;SDS011;10386;54.314;10.022;2023-08-31T00:19:49;27.77;;;16.97;;
20454;SDS011;10386;54.314;10.022;2023-08-31T00:22:18;28.80;;;17.33;;
20454;SDS011;10386;54.314;10.022;2023-08-31T00:24:46;25.10;;;15.93;;
20454;SDS011;10386;54.314;10.022;2023-08-31T00:27:14;25.37;;;15.90;;
20454;SDS011;10386;54.314;10.022;2023-08-31T00:29:42;25.00;;;15.13;;
20454;SDS011;10386;54.314;10.022;2023-08-31T00:32:17;29.73;;;16.77;;
20454;SDS011;10386;54.314;10.022;2023-08-31T00:34:50;28.40;;;16.37;;
20454;SDS011;10386;54.314;10.022;2023-08-31T00:37:18;26.30;;;15.37;;
20454;SDS011;10386;54.314;10.022;2023-08-31T00:39:48;23.13;;;14.87;;
20454;SDS011;10386;54.314;10.022;2023-08-31T00:42:19;25.37;;;14.37;;
20454;SDS011;10386;54.314;10.022;2023-08-31T00:44:48;27.40;;;13.60;;
20454;SDS011;10386;54.314;10.022;2023-08-31T00:47:17;21.93;;;13.20;;
20454;SDS011;10386;54.314;10.022;2023-08-31T00:49:46;22.90;;;13.90;;
20454;SDS011;10386;54.314;10.022;2023-08-31T00:52:17;24.60;;;12.63;;
20454;SDS011;10386;54.314;10.022;2023-08-31T00:54:46;23.67;;;13.50;;
20454;SDS011;10386;54.314;10.022;2023-08-31T00:57:15;22.10;;;14.10;;
20454;SDS011;10386;54.314;10.022;2023-08-31T00:59:43;23.13;;;12.90;;
20454;SDS011;10386;54.314;10.022;2023-08-31T01:02:13;20.57;;;12.73;;
20454;SDS011;10386;54.314;10.022;2023-08-31T01:15:30;21.63;;;13.13;;
20454;SDS011;10386;54.314;10.022;2023-08-31T01:17:59;21.50;;;13.47;;
20454;SDS011;10386;54.314;10.022;2023-08-31T01:20:34;19.80;;;12.33;;
20454;SDS011;10386;54.314;10.022;2023-08-31T01:23:11;21.47;;;11.93;;
20454;SDS011;10386;54.314;10.022;2023-08-31T01:25:43;21.17;;;11.67;;
20454;SDS011;10386;54.314;10.022;2023-08-31T01:28:13;21.57;;;11.87;;
20454;SDS011;10386;54.314;10.022;2023-08-31T01:30:41;17.37;;;11.30;;
20454;SDS011;10386;54.314;10.022;2023-08-31T01:33:09;15.40;;;11.00;;
20454;SDS011;10386;54.314;10.022;2023-08-31T01:35:43;20.17;;;11.43;;
20454;SDS011;10386;54.314;10.022;2023-08-31T01:38:21;19.57;;;10.87;;
20454;SDS011;10386;54.314;10.022;2023-08-31T01:40:56;17.97;;;11.40;;
20454;SDS011;10386;54.314;10.022;2023-08-31T01:43:30;17.70;;;10.77;;
20454;SDS011;10386;54.314;10.022;2023-08-31T01:46:00;18.77;;;11.13;;
20454;SDS011;10386;54.314;10.022;2023-08-31T01:48:28;18.70;;;11.70;;
20454;SDS011;10386;54.314;10.022;2023-08-31T01:50:56;16.73;;;11.60;;
20454;SDS011;10386;54.314;10.022;2023-08-31T01:53:24;19.50;;;11.90;;
20454;SDS011;10386;54.314;10.022;2023-08-31T01:55:53;21.13;;;11.43;;
20454;SDS011;10386;54.314;10.022;2023-08-31T01:58:21;21.73;;;11.83;;
20454;SDS011;10386;54.314;10.022;2023-08-31T02:00:49;19.73;;;11.37;;
20454;SDS011;10386;54.314;10.022;2023-08-31T02:03:17;21.40;;;11.57;;
20454;SDS011;10386;54.314;10.022;2023-08-31T02:05:45;22.07;;;11.83;;
20454;SDS011;10386;54.314;10.022;2023-08-31T02:08:13;20.40;;;11.07;;
20454;SDS011;10386;54.314;10.022;2023-08-31T02:10:46;18.20;;;11.30;;
20454;SDS011;10386;54.314;10.022;2023-08-31T02:13:16;16.93;;;11.37;;
20454;SDS011;10386;54.314;10.022;2023-08-31T02:15:44;19.20;;;10.60;;
20454;SDS011;10386;54.314;10.022;2023-08-31T02:18:12;18.07;;;11.47;;
20454;SDS011;10386;54.314;10.022;2023-08-31T02:20:39;17.93;;;11.10;;
20454;SDS011;10386;54.314;10.022;2023-08-31T02:23:07;20.37;;;12.20;;
20454;SDS011;10386;54.314;10.022;2023-08-31T02:25:36;20.47;;;12.27;;
20454;SDS011;10386;54.314;10.022;2023-08-31T02:28:04;21.77;;;12.40;;
20454;SDS011;10386;54.314;10.022;2023-08-31T02:30:32;26.63;;;13.50;;
20454;SDS011;10386;54.314;10.022;2023-08-31T02:32:59;21.13;;;13.47;;
20454;SDS011;10386;54.314;10.022;2023-08-31T02:35:28;22.30;;;12.97;;
20454;SDS011;10386;54.314;10.022;2023-08-31T02:37:56;26.47;;;14.20;;
20454;SDS011;10386;54.314;10.022;2023-08-31T02:40:23;29.70;;;13.93;;
20454;SDS011;10386;54.314;10.022;2023-08-31T02:42:51;25.10;;;14.47;;
20454;SDS011;10386;54.314;10.022;2023-08-31T02:45:20;25.13;;;14.07;;
20454;SDS011;10386;54.314;10.022;2023-08-31T02:47:48;25.67;;;13.90;;
20454;SDS011;10386;54.314;10.022;2023-08-31T02:50:16;22.87;;;13.50;;
20454;SDS011;10386;54.314;10.022;2023-08-31T02:52:44;25.33;;;13.83;;
20454;SDS011;10386;54.314;10.022;2023-08-31T02:55:13;25.43;;;14.13;;
20454;SDS011;10386;54.314;10.022;2023-08-31T02:57:41;25.23;;;14.03;;
20454;SDS011;10386;54.314;10.022;2023-08-31T03:00:09;24.03;;;14.73;;
20454;SDS011;10386;54.314;10.022;2023-08-31T03:02:39;26.17;;;15.10;;
20454;SDS011;10386;54.314;10.022;2023-08-31T03:05:07;22.17;;;13.47;;
20454;SDS011;10386;54.314;10.022;2023-08-31T03:07:35;21.73;;;14.00;;
20454;SDS011;10386;54.314;10.022;2023-08-31T03:10:04;26.63;;;14.40;;
20454;SDS011;10386;54.314;10.022;2023-08-31T03:12:31;23.87;;;13.97;;
20454;SDS011;10386;54.314;10.022;2023-08-31T03:14:59;24.50;;;14.20;;
20454;SDS011;10386;54.314;10.022;2023-08-31T03:17:27;24.07;;;13.47;;
20454;SDS011;10386;54.314;10.022;2023-08-31T03:19:55;24.70;;;14.30;;
20454;SDS011;10386;54.314;10.022;2023-08-31T03:22:24;26.80;;;14.87;;
20454;SDS011;10386;54.314;10.022;2023-08-31T03:24:52;24.33;;;13.43;;
20454;SDS011;10386;54.314;10.022;2023-08-31T03:27:20;28.80;;;14.17;;
20454;SDS011;10386;54.314;10.022;2023-08-31T03:29:48;26.57;;;14.30;;
20454;SDS011;10386;54.314;10.022;2023-08-31T03:32:16;27.30;;;14.30;;
20454;SDS011;10386;54.314;10.022;2023-08-31T03:34:44;23.33;;;13.37;;
20454;SDS011;10386;54.314;10.022;2023-08-31T03:37:12;23.93;;;14.03;;
20454;SDS011;10386;54.314;10.022;2023-08-31T03:39:39;26.83;;;14.93;;
20454;SDS011;10386;54.314;10.022;2023-08-31T03:42:09;26.47;;;14.03;;
20454;SDS011;10386;54.314;10.022;2023-08-31T03:44:37;26.70;;;15.20;;
20454;SDS011;10386;54.314;10.022;2023-08-31T03:47:05;22.90;;;13.90;;
20454;SDS011;10386;54.314;10.022;2023-08-31T03:49:33;25.40;;;13.50;;
20454;SDS011;10386;54.314;10.022;2023-08-31T03:52:01;22.47;;;13.40;;
20454;SDS011;10386;54.314;10.022;2023-08-31T03:54:29;22.80;;;13.20;;
20454;SDS011;10386;54.314;10.022;2023-08-31T03:56:57;24.83;;;13.30;;
20454;SDS011;10386;54.314;10.022;2023-08-31T03:59:26;20.70;;;12.73;;
20454;SDS011;10386;54.314;10.022;2023-08-31T04:01:54;21.60;;;12.17;;
20454;SDS011;10386;54.314;10.022;2023-08-31T04:04:22;22.77;;;11.77;;
20454;SDS011;10386;54.314;10.022;2023-08-31T04:06:50;24.90;;;12.60;;
20454;SDS011;10386;54.314;10.022;2023-08-31T04:09:18;21.83;;;11.73;;
20454;SDS011;10386;54.314;10.022;2023-08-31T04:11:46;25.70;;;12.30;;
20454;SDS011;10386;54.314;10.022;2023-08-31T04:14:13;21.90;;;12.47;;
20454;SDS011;10386;54.314;10.022;2023-08-31T04:16:41;22.70;;;11.90;;
20454;SDS011;10386;54.314;10.022;2023-08-31T04:19:09;22.23;;;10.43;;
20454;SDS011;10386;54.314;10.022;2023-08-31T04:21:37;23.03;;;11.37;;
20454;SDS011;10386;54.314;10.022;2023-08-31T04:24:05;20.43;;;11.37;;
20454;SDS011;10386;54.314;10.022;2023-08-31T04:26:33;20.47;;;10.13;;
20454;SDS011;10386;54.314;10.022;2023-08-31T04:29:02;19.07;;;10.60;;
20454;SDS011;10386;54.314;10.022;2023-08-31T04:31:32;18.20;;;9.97;;
20454;SDS011;10386;54.314;10.022;2023-08-31T04:34:00;18.80;;;10.13;;
20454;SDS011;10386;54.314;10.022;2023-08-31T04:36:28;17.80;;;10.43;;
20454;SDS011;10386;54.314;10.022;2023-08-31T04:38:56;17.87;;;9.97;;
20454;SDS011;10386;54.314;10.022;2023-08-31T04:41:24;16.30;;;9.10;;
20454;SDS011;10386;54.314;10.022;2023-08-31T04:43:52;15.67;;;9.20;;
20454;SDS011;10386;54.314;10.022;2023-08-31T04:46:20;13.87;;;8.33;;
20454;SDS011;10386;54.314;10.022;2023-08-31T04:48:48;17.67;;;9.27;;
20454;SDS011;10386;54.314;10.022;2023-08-31T04:51:30;14.97;;;8.70;;
20454;SDS011;10386;54.314;10.022;2023-08-31T04:54:01;20.07;;;9.13;;
20454;SDS011;10386;54.314;10.022;2023-08-31T04:56:33;14.50;;;8.47;;
20454;SDS011;10386;54.314;10.022;2023-08-31T04:59:01;15.07;;;8.30;;
20454;SDS011;10386;54.314;10.022;2023-08-31T05:01:29;16.33;;;8.50;;
20454;SDS011;10386;54.314;10.022;2023-08-31T05:03:57;18.43;;;8.37;;
20454;SDS011;10386;54.314;10.022;2023-08-31T05:06:25;14.87;;;8.37;;
20454;SDS011;10386;54.314;10.022;2023-08-31T05:08:53;13.53;;;7.80;;
20454;SDS011;10386;54.314;10.022;2023-08-31T05:11:22;15.33;;;8.20;;
20454;SDS011;10386;54.314;10.022;2023-08-31T05:13:49;17.53;;;7.77;;
20454;SDS011;10386;54.314;10.022;2023-08-31T05:16:17;12.90;;;7.63;;
20454;SDS011;10386;54.314;10.022;2023-08-31T05:18:45;10.27;;;6.90;;
20454;SDS011;10386;54.314;10.022;2023-08-31T05:21:13;14.13;;;7.07;;
20454;SDS011;10386;54.314;10.022;2023-08-31T05:23:41;10.23;;;6.60;;
20454;SDS011;10386;54.314;10.022;2023-08-31T05:26:09;12.10;;;6.87;;
20454;SDS011;10386;54.314;10.022;2023-08-31T05:28:37;13.40;;;7.80;;
20454;SDS011;10386;54.314;10.022;2023-08-31T05:31:05;15.03;;;7.10;;
20454;SDS011;10386;54.314;10.022;2023-08-31T05:33:33;13.70;;;7.50;;
20454;SDS011;10386;54.314;10.022;2023-08-31T05:36:01;10.60;;;6.90;;
20454;SDS011;10386;54.314;10.022;2023-08-31T05:38:31;16.33;;;7.00;;
20454;SDS011;10386;54.314;10.022;2023-08-31T05:41:03;11.33;;;6.70;;
20454;SDS011;10386;54.314;10.022;2023-08-31T05:43:33;11.47;;;6.00;;
20454;SDS011;10386;54.314;10.022;2023-08-31T05:46:02;10.23;;;5.73;;
20454;SDS011;10386;54.314;10.022;2023-08-31T05:48:30;10.27;;;6.67;;
20454;SDS011;10386;54.314;10.022;2023-08-31T05:50:58;12.83;;;6.03;;
20454;SDS011;10386;54.314;10.022;2023-08-31T05:53:26;12.73;;;6.07;;
20454;SDS011;10386;54.314;10.022;2023-08-31T05:55:54;12.00;;;6.27;;
20454;SDS011;10386;54.314;10.022;2023-08-31T05:58:31;10.87;;;5.90;;
20454;SDS011;10386;54.314;10.022;2023-08-31T06:00:59;13.03;;;5.77;;
20454;SDS011;10386;54.314;10.022;2023-08-31T06:03:28;8.47;;;5.57;;
20454;SDS011;10386;54.314;10.022;2023-08-31T06:05:56;10.70;;;5.63;;
20454;SDS011;10386;54.314;10.022;2023-08-31T06:08:27;8.97;;;4.90;;
20454;SDS011;10386;54.314;10.022;2023-08-31T06:10:56;11.80;;;5.47;;
20454;SDS011;10386;54.314;10.022;2023-08-31T06:13:25;8.43;;;5.27;;
20454;SDS011;10386;54.314;10.022;2023-08-31T06:15:53;7.17;;;4.90;;
20454;SDS011;10386;54.314;10.022;2023-08-31T06:18:22;9.30;;;4.90;;
20454;SDS011;10386;54.314;10.022;2023-08-31T06:20:50;8.53;;;5.27;;
20454;SDS011;10386;54.314;10.022;2023-08-31T06:23:17;5.43;;;4.13;;
20454;SDS011;10386;54.314;10.022;2023-08-31T06:25:45;8.17;;;4.00;;
20454;SDS011;10386;54.314;10.022;2023-08-31T06:28:12;4.57;;;3.20;;
20454;SDS011;10386;54.314;10.022;2023-08-31T06:30:41;5.97;;;2.90;;
20454;SDS011;10386;54.314;10.022;2023-08-31T06:33:14;7.87;;;3.07;;
20454;SDS011;10386;54.314;10.022;2023-08-31T06:35:42;5.60;;;2.60;;
20454;SDS011;10386;54.314;10.022;2023-08-31T06:38:10;5.82;;;2.85;;
20454;SDS011;10386;54.314;10.022;2023-08-31T06:40:38;6.60;;;2.90;;
20454;SDS011;10386;54.314;10.022;2023-08-31T06:43:06;6.95;;;2.33;;
20454;SDS011;10386;54.314;10.022;2023-08-31T06:45:34;8.43;;;2.60;;
20454;SDS011;10386;54.314;10.022;2023-08-31T06:48:02;4.87;;;2.60;;
20454;SDS011;10386;54.314;10.022;2023-08-31T06:50:32;5.40;;;2.77;;
20454;SDS011;10386;54.314;10.022;2023-08-31T06:53:02;4.23;;;2.47;;
20454;SDS011;10386;54.314;10.022;2023-08-31T06:55:31;6.83;;;2.23;;
20454;SDS011;10386;54.314;10.022;2023-08-31T06:57:59;6.57;;;2.40;;
20454;SDS011;10386;54.314;10.022;2023-08-31T07:00:28;4.87;;;2.47;;
20454;SDS011;10386;54.314;10.022;2023-08-31T07:02:56;5.50;;;2.70;;
20454;SDS011;10386;54.314;10.022;2023-08-31T07:05:24;6.40;;;2.87;;
20454;SDS011;10386;54.314;10.022;2023-08-31T07:07:53;11.17;;;2.93;;
20454;SDS011;10386;54.314;10.022;2023-08-31T07:10:22;5.37;;;2.53;;
20454;SDS011;10386;54.314;10.022;2023-08-31T07:12:51;6.60;;;2.33;;
20454;SDS011;10386;54.314;10.022;2023-08-31T07:15:19;6.20;;;2.40;;
20454;SDS011;10386;54.314;10.022;2023-08-31T07:17:47;8.23;;;2.77;;
20454;SDS011;10386;54.314;10.022;2023-08-31T07:20:15;3.67;;;2.33;;
20454;SDS011;10386;54.314;10.022;2023-08-31T07:22:43;6.33;;;2.70;;
20454;SDS011;10386;54.314;10.022;2023-08-31T07:25:11;2.47;;;2.27;;
20454;SDS011;10386;54.314;10.022;2023-08-31T07:27:38;3.30;;;2.07;;
20454;SDS011;10386;54.314;10.022;2023-08-31T07:30:06;6.60;;;2.30;;
20454;SDS011;10386;54.314;10.022;2023-08-31T07:32:34;5.07;;;2.60;;
20454;SDS011;10386;54.314;10.022;2023-08-31T07:35:01;6.53;;;2.17;;
20454;SDS011;10386;54.314;10.022;2023-08-31T07:37:31;2.63;;;2.40;;
20454;SDS011;10386;54.314;10.022;2023-08-31T07:39:58;5.73;;;2.73;;
20454;SDS011;10386;54.314;10.022;2023-08-31T07:42:26;6.30;;;2.30;;
20454;SDS011;10386;54.314;10.022;2023-08-31T07:44:53;8.07;;;2.50;;
20454;SDS011;10386;54.314;10.022;2023-08-31T07:47:20;4.80;;;1.90;;
20454;SDS011;10386;54.314;10.022;2023-08-31T07:49:48;4.80;;;2.20;;
20454;SDS011;10386;54.314;10.022;2023-08-31T07:52:15;3.30;;;2.13;;
20454;SDS011;10386;54.314;10.022;2023-08-31T07:54:42;7.00;;;2.07;;
20454;SDS011;10386;54.314;10.022;2023-08-31T07:57:10;10.20;;;2.20;;
20454;SDS011;10386;54.314;10.022;2023-08-31T07:59:38;5.33;;;2.07;;
20454;SDS011;10386;54.314;10.022;2023-08-31T08:02:07;3.27;;;1.77;;
20454;SDS011;10386;54.314;10.022;2023-08-31T08:04:34;6.03;;;2.03;;
20454;SDS011;10386;54.314;10.022;2023-08-31T08:07:02;5.47;;;1.90;;
20454;SDS011;10386;54.314;10.022;2023-08-31T08:09:32;4.53;;;1.63;;
20454;SDS011;10386;54.314;10.022;2023-08-31T08:11:59;3.17;;;1.70;;
20454;SDS011;10386;54.314;10.022;2023-08-31T08:14:28;2.80;;;1.70;;
20454;SDS011;10386;54.314;10.022;2023-08-31T08:16:55;3.53;;;1.30;;
20454;SDS011;10386;54.314;10.022;2023-08-31T08:19:23;3.90;;;1.57;;
20454;SDS011;10386;54.314;10.022;2023-08-31T08:21:51;2.13;;;1.40;;
20454;SDS011;10386;54.314;10.022;2023-08-31T08:24:19;6.33;;;1.83;;
20454;SDS011;10386;54.314;10.022;2023-08-31T08:26:46;3.47;;;2.07;;
20454;SDS011;10386;54.314;10.022;2023-08-31T08:29:18;5.20;;;1.47;;
20454;SDS011;10386;54.314;10.022;2023-08-31T08:31:46;4.83;;;1.60;;
20454;SDS011;10386;54.314;10.022;2023-08-31T08:34:14;4.67;;;1.70;;
20454;SDS011;10386;54.314;10.022;2023-08-31T08:36:42;3.87;;;1.53;;
20454;SDS011;10386;54.314;10.022;2023-08-31T08:39:10;3.70;;;1.57;;
20454;SDS011;10386;54.314;10.022;2023-08-31T08:41:37;2.40;;;1.20;;
20454;SDS011;10386;54.314;10.022;2023-08-31T08:44:06;4.10;;;1.70;;
20454;SDS011;10386;54.314;10.022;2023-08-31T08:46:34;2.07;;;1.63;;
20454;SDS011;10386;54.314;10.022;2023-08-31T08:49:02;6.23;;;1.80;;
20454;SDS011;10386;54.314;10.022;2023-08-31T08:51:32;3.80;;;1.73;;
20454;SDS011;10386;54.314;10.022;2023-08-31T08:53:59;1.80;;;1.50;;
20454;SDS011;10386;54.314;10.022;2023-08-31T08:56:28;2.00;;;1.47;;
20454;SDS011;10386;54.314;10.022;2023-08-31T08:58:55;2.80;;;1.67;;
20454;SDS011;10386;54.314;10.022;2023-08-31T09:01:23;4.73;;;1.50;;
20454;SDS011;10386;54.314;10.022;2023-08-31T09:03:52;3.70;;;1.73;;
20454;SDS011;10386;54.314;10.022;2023-08-31T09:06:19;4.70;;;1.70;;
20454;SDS011;10386;54.314;10.022;2023-08-31T09:08:54;3.97;;;1.43;;
20454;SDS011;10386;54.314;10.022;2023-08-31T09:11:23;5.63;;;1.80;;
20454;SDS011;10386;54.314;10.022;2023-08-31T09:13:51;4.87;;;1.27;;
20454;SDS011;10386;54.314;10.022;2023-08-31T09:16:23;4.05;;;1.80;;
20454;SDS011;10386;54.314;10.022;2023-08-31T09:18:55;4.72;;;1.52;;
20454;SDS011;10386;54.314;10.022;2023-08-31T09:21:36;2.90;;;1.85;;
20454;SDS011;10386;54.314;10.022;2023-08-31T09:24:05;2.63;;;1.63;;
20454;SDS011;10386;54.314;10.022;2023-08-31T09:26:39;3.55;;;1.58;;
20454;SDS011;10386;54.314;10.022;2023-08-31T09:29:10;5.32;;;1.80;;
20454;SDS011;10386;54.314;10.022;2023-08-31T09:31:41;3.22;;;2.00;;
20454;SDS011;10386;54.314;10.022;2023-08-31T09:34:10;2.10;;;1.30;;
20454;SDS011;10386;54.314;10.022;2023-08-31T09:36:38;4.88;;;1.50;;
20454;SDS011;10386;54.314;10.022;2023-08-31T09:39:07;2.42;;;1.40;;
20454;SDS011;10386;54.314;10.022;2023-08-31T09:41:35;2.75;;;1.60;;
20454;SDS011;10386;54.314;10.022;2023-08-31T09:44:19;2.63;;;1.40;;
20454;SDS011;10386;54.314;10.022;2023-08-31T09:46:48;3.15;;;1.77;;
20454;SDS011;10386;54.314;10.022;2023-08-31T09:49:16;3.70;;;1.42;;
20454;SDS011;10386;54.314;10.022;2023-08-31T09:51:44;2.70;;;1.55;;
20454;SDS011;10386;54.314;10.022;2023-08-31T09:54:13;3.05;;;1.60;;
20454;SDS011;10386;54.314;10.022;2023-08-31T09:56:46;2.58;;;1.50;;
20454;SDS011;10386;54.314;10.022;2023-08-31T09:59:17;4.38;;;1.35;;
20454;SDS011;10386;54.314;10.022;2023-08-31T10:01:45;2.42;;;1.30;;
20454;SDS011;10386;54.314;10.022;2023-08-31T10:04:13;5.07;;;1.95;;
20454;SDS011;10386;54.314;10.022;2023-08-31T10:06:41;3.65;;;1.40;;
20454;SDS011;10386;54.314;10.022;2023-08-31T10:09:09;2.05;;;1.27;;
20454;SDS011;10386;54.314;10.022;2023-08-31T10:11:38;2.40;;;1.70;;
20454;SDS011;10386;54.314;10.022;2023-08-31T10:14:12;3.05;;;1.00;;
20454;SDS011;10386;54.314;10.022;2023-08-31T10:16:41;2.15;;;1.10;;
20454;SDS011;10386;54.314;10.022;2023-08-31T10:19:11;3.80;;;0.93;;
20454;SDS011;10386;54.314;10.022;2023-08-31T10:21:40;1.25;;;1.10;;
20454;SDS011;10386;54.314;10.022;2023-08-31T10:24:08;2.25;;;0.90;;
20454;SDS011;10386;54.314;10.022;2023-08-31T10:26:35;2.83;;;1.20;;
20454;SDS011;10386;54.314;10.022;2023-08-31T10:29:02;1.73;;;1.10;;
20454;SDS011;10386;54.314;10.022;2023-08-31T10:31:33;1.30;;;1.20;;
20454;SDS011;10386;54.314;10.022;2023-08-31T10:34:02;1.52;;;1.08;;
20454;SDS011;10386;54.314;10.022;2023-08-31T10:36:34;1.48;;;1.05;;
20454;SDS011;10386;54.314;10.022;2023-08-31T10:41:52;1.48;;;1.00;;
20454;SDS011;10386;54.314;10.022;2023-08-31T10:44:24;8.40;;;1.05;;
20454;SDS011;10386;54.314;10.022;2023-08-31T10:46:53;2.38;;;1.10;;
20454;SDS011;10386;54.314;10.022;2023-08-31T10:49:21;4.90;;;1.27;;
20454;SDS011;10386;54.314;10.022;2023-08-31T10:51:53;1.85;;;0.90;;
20454;SDS011;10386;54.314;10.022;2023-08-31T10:54:25;2.80;;;1.30;;
20454;SDS011;10386;54.314;10.022;2023-08-31T10:59:24;2.92;;;1.15;;
20454;SDS011;10386;54.314;10.022;2023-08-31T11:01:59;3.65;;;1.33;;
20454;SDS011;10386;54.314;10.022;2023-08-31T11:04:31;2.33;;;1.17;;
20454;SDS011;10386;54.314;10.022;2023-08-31T11:07:23;5.82;;;1.05;;
20454;SDS011;10386;54.314;10.022;2023-08-31T11:09:51;1.88;;;1.17;;
20454;SDS011;10386;54.314;10.022;2023-08-31T11:12:21;3.00;;;1.10;;
20454;SDS011;10386;54.314;10.022;2023-08-31T11:14:50;2.40;;;0.95;;
20454;SDS011;10386;54.314;10.022;2023-08-31T11:17:18;2.70;;;1.10;;
20454;SDS011;10386;54.314;10.022;2023-08-31T11:19:45;2.55;;;1.13;;
20454;SDS011;10386;54.314;10.022;2023-08-31T11:22:12;2.07;;;1.27;;
20454;SDS011;10386;54.314;10.022;2023-08-31T11:24:40;2.30;;;1.30;;
20454;SDS011;10386;54.314;10.022;2023-08-31T11:27:07;1.50;;;1.10;;
20454;SDS011;10386;54.314;10.022;2023-08-31T11:29:42;3.28;;;0.95;;
20454;SDS011;10386;54.314;10.022;2023-08-31T11:32:10;1.63;;;0.90;;
20454;SDS011;10386;54.314;10.022;2023-08-31T11:34:41;3.10;;;1.20;;
20454;SDS011;10386;54.314;10.022;2023-08-31T11:37:10;1.45;;;1.25;;
20454;SDS011;10386;54.314;10.022;2023-08-31T11:39:42;3.88;;;1.00;;
20454;SDS011;10386;54.314;10.022;2023-08-31T11:42:16;2.45;;;1.17;;
20454;SDS011;10386;54.314;10.022;2023-08-31T11:44:46;1.25;;;1.00;;
20454;SDS011;10386;54.314;10.022;2023-08-31T11:47:15;2.30;;;1.23;;
20454;SDS011;10386;54.314;10.022;2023-08-31T11:49:43;3.47;;;1.05;;
20454;SDS011;10386;54.314;10.022;2023-08-31T11:52:11;0.70;;;0.70;;
20454;SDS011;10386;54.314;10.022;2023-08-31T11:54:41;2.83;;;1.00;;
20454;SDS011;10386;54.314;10.022;2023-08-31T11:57:10;1.60;;;0.88;;
20454;SDS011;10386;54.314;10.022;2023-08-31T11:59:37;3.63;;;1.10;;
20454;SDS011;10386;54.314;10.022;2023-08-31T12:02:06;1.75;;;0.80;;
20454;SDS011;10386;54.314;10.022;2023-08-31T12:04:42;2.25;;;0.90;;
20454;SDS011;10386;54.314;10.022;2023-08-31T12:07:16;1.15;;;0.95;;
20454;SDS011;10386;54.314;10.022;2023-08-31T12:09:45;1.95;;;0.68;;
20454;SDS011;10386;54.314;10.022;2023-08-31T12:12:13;1.67;;;1.00;;
20454;SDS011;10386;54.314;10.022;2023-08-31T12:14:42;2.10;;;1.00;;
20454;SDS011;10386;54.314;10.022;2023-08-31T12:17:10;1.80;;;0.80;;
20454;SDS011;10386;54.314;10.022;2023-08-31T12:19:40;2.05;;;0.70;;
20454;SDS011;10386;54.314;10.022;2023-08-31T12:22:07;0.73;;;0.73;;
20454;SDS011;10386;54.314;10.022;2023-08-31T12:24:40;1.45;;;0.90;;
20454;SDS011;10386;54.314;10.022;2023-08-31T12:27:08;2.80;;;0.90;;
20454;SDS011;10386;54.314;10.022;2023-08-31T12:29:36;0.73;;;0.73;;
20454;SDS011;10386;54.314;10.022;2023-08-31T12:32:03;2.13;;;0.60;;
20454;SDS011;10386;54.314;10.022;2023-08-31T12:34:31;2.80;;;0.90;;
20454;SDS011;10386;54.314;10.022;2023-08-31T12:36:58;0.63;;;0.63;;
20454;SDS011;10386;54.314;10.022;2023-08-31T12:39:27;2.45;;;0.65;;
20454;SDS011;10386;54.314;10.022;2023-08-31T12:41:54;1.15;;;0.52;;
20454;SDS011;10386;54.314;10.022;2023-08-31T12:44:38;2.90;;;0.90;;
20454;SDS011;10386;54.314;10.022;2023-08-31T12:47:06;1.73;;;0.90;;
20454;SDS011;10386;54.314;10.022;2023-08-31T12:49:34;1.38;;;0.60;;
20454;SDS011;10386;54.314;10.022;2023-08-31T12:52:01;0.85;;;0.73;;
20454;SDS011;10386;54.314;10.022;2023-08-31T12:54:29;1.33;;;0.90;;
20454;SDS011;10386;54.314;10.022;2023-08-31T12:56:56;1.13;;;0.98;;
20454;SDS011;10386;54.314;10.022;2023-08-31T12:59:23;1.02;;;0.80;;
20454;SDS011;10386;54.314;10.022;2023-08-31T13:01:50;1.30;;;0.82;;
20454;SDS011;10386;54.314;10.022;2023-08-31T13:04:18;0.90;;;0.77;;
20454;SDS011;10386;54.314;10.022;2023-08-31T13:06:45;1.02;;;1.00;;
20454;SDS011;10386;54.314;10.022;2023-08-31T13:09:12;2.20;;;1.10;;
20454;SDS011;10386;54.314;10.022;2023-08-31T13:11:40;1.40;;;1.30;;
20454;SDS011;10386;54.314;10.022;2023-08-31T13:14:07;1.30;;;1.20;;
20454;SDS011;10386;54.314;10.022;2023-08-31T13:16:35;1.48;;;1.40;;
20454;SDS011;10386;54.314;10.022;2023-08-31T13:19:03;2.72;;;2.28;;
20454;SDS011;10386;54.314;10.022;2023-08-31T13:21:31;5.55;;;2.78;;
20454;SDS011;10386;54.314;10.022;2023-08-31T13:23:59;2.90;;;2.70;;
20454;SDS011;10386;54.314;10.022;2023-08-31T13:26:27;3.42;;;3.03;;
20454;SDS011;10386;54.314;10.022;2023-08-31T13:28:54;3.33;;;2.63;;
20454;SDS011;10386;54.314;10.022;2023-08-31T13:31:21;4.70;;;2.40;;
20454;SDS011;10386;54.314;10.022;2023-08-31T13:33:49;3.47;;;2.20;;
20454;SDS011;10386;54.314;10.022;2023-08-31T13:36:16;2.38;;;1.65;;
20454;SDS011;10386;54.314;10.022;2023-08-31T13:38:44;1.90;;;1.80;;
20454;SDS011;10386;54.314;10.022;2023-08-31T13:41:11;1.88;;;1.70;;
20454;SDS011;10386;54.314;10.022;2023-08-31T13:43:38;1.80;;;1.70;;
20454;SDS011;10386;54.314;10.022;2023-08-31T13:46:06;3.60;;;1.98;;
20454;SDS011;10386;54.314;10.022;2023-08-31T13:48:33;4.05;;;1.90;;
20454;SDS011;10386;54.314;10.022;2023-08-31T13:51:00;7.60;;;2.25;;
20454;SDS011;10386;54.314;10.022;2023-08-31T13:53:28;2.38;;;1.85;;
20454;SDS011;10386;54.314;10.022;2023-08-31T13:55:55;4.82;;;1.90;;
20454;SDS011;10386;54.314;10.022;2023-08-31T13:58:23;2.63;;;1.58;;
20454;SDS011;10386;54.314;10.022;2023-08-31T14:00:50;1.58;;;1.48;;
20454;SDS011;10386;54.314;10.022;2023-08-31T14:03:18;5.60;;;1.50;;
20454;SDS011;10386;54.314;10.022;2023-08-31T14:05:49;3.22;;;1.35;;
20454;SDS011;10386;54.314;10.022;2023-08-31T14:08:30;1.98;;;1.50;;
20454;SDS011;10386;54.314;10.022;2023-08-31T14:10:58;1.85;;;1.40;;
20454;SDS011;10386;54.314;10.022;2023-08-31T14:13:25;3.92;;;1.17;;
20454;SDS011;10386;54.314;10.022;2023-08-31T14:15:54;2.05;;;1.30;;
20454;SDS011;10386;54.314;10.022;2023-08-31T14:18:22;1.77;;;1.20;;
20454;SDS011;10386;54.314;10.022;2023-08-31T14:20:52;1.60;;;1.20;;
20454;SDS011;10386;54.314;10.022;2023-08-31T14:23:19;4.07;;;1.50;;
20454;SDS011;10386;54.314;10.022;2023-08-31T14:25:47;1.48;;;1.25;;
20454;SDS011;10386;54.314;10.022;2023-08-31T14:28:16;3.72;;;1.75;;
20454;SDS011;10386;54.314;10.022;2023-08-31T14:31:10;2.00;;;1.40;;
20454;SDS011;10386;54.314;10.022;2023-08-31T14:33:39;2.58;;;1.52;;
20454;SDS011;10386;54.314;10.022;2023-08-31T14:36:08;5.28;;;1.98;;
20454;SDS011;10386;54.314;10.022;2023-08-31T14:38:36;1.42;;;1.33;;
20454;SDS011;10386;54.314;10.022;2023-08-31T14:41:05;1.77;;;1.30;;
20454;SDS011;10386;54.314;10.022;2023-08-31T14:43:33;1.67;;;1.38;;
20454;SDS011;10386;54.314;10.022;2023-08-31T14:46:01;2.22;;;1.20;;
20454;SDS011;10386;54.314;10.022;2023-08-31T14:48:30;2.83;;;1.30;;
20454;SDS011;10386;54.314;10.022;2023-08-31T14:50:59;1.75;;;1.42;;